الصفحة الرئيسية
METAR-TAF:

METAR-TAF

مطار :

نادي, فيجي

دائرة عرض: 17-45S, خط طول: 177-27E, ارتفاع: 13 متر

مراقبة الطقس الحالي

تاريخ ووقت الإصدار 22 دقيقة قبل الساعة 00:00UTC
ريح 10 عقدة من الغرب/الجنوب الغربي
درجة الحرارة 27°درجة مئوية
الرطوبة 74%
ضغط 1014 hPa
الرؤية 10 كم أو أكثر
غيوم قليلة على ارتفاع 3000 قدم
غيوم متفرقة على ارتفاع 5000 قدم

METAR: NFFN 180000Z 25010KT 9999 FEW030 SCT050 27/22 Q1014 NOSIG

زمن: 12:22 (00:22 UTC)

توقعات

تاريخ ووقت الإصدار 56 دقيقة قبل الساعة 23:26UTC
التوقعات صالحة من18 الساعة 00 UTC إلى 18 الساعة 24 UTC
ريح 12 عقدة من الغرب/الجنوب الغربي
الرؤية 10 كم أو أكثر
غيوم قليلة على ارتفاع 3000 قدم
غيوم متفرقة على ارتفاع 4500 قدم
أصبح
من 18 الساعة 05 UTC إلى 18 الساعة 07 UTC
ريح 5 عقدة من الشرق/الشمال الشرقي
أصبح
من 18 الساعة 22 UTC إلى 18 الساعة 24 UTC
ريح 10 عقدة من الغرب

TAF: NFFN 172326Z 1800/1824 25012KT 9999 FEW030 SCT045 BECMG 1805/1807 06005KT BECMG 1822/1824 26010KT

أرصاد الطقس والتوقعات من أكثر من 4000 مطار (تقارير الطقس للمطار METAR والتنبؤ بالطقس بالمطارTAF).

المحطات المتاحة هي النقط الصفراء والحمراء على الخريطة.

حرك المؤشر فوق النقطة لمعرفة اسم المحطة.

ثم انقر لمعرفة أرصاد وتوقعات الطقس.

لتغيير الخارطة: اضغط على الأزرار الخضراء مع رمز الصليب الأسود للتكبير. على الزر الأخضر مع شرطة للتصغير، أو على الأسهم الخضراء للخرائط المجاورة.


METAR-TAF: